createdAt,value
2023-02-11T00:00:31.348Z,15.60
2023-02-11T00:01:37.270Z,14.90
2023-02-11T00:02:40.507Z,15.07
2023-02-11T00:03:43.769Z,14.88
2023-02-11T00:04:46.948Z,13.18
2023-02-11T00:06:00.917Z,14.43
2023-02-11T00:07:03.971Z,15.50
2023-02-11T00:08:07.146Z,14.13
2023-02-11T00:09:11.567Z,14.77
2023-02-11T00:10:14.791Z,14.75
2023-02-11T00:11:20.518Z,12.98
2023-02-11T00:12:23.965Z,14.70
2023-02-11T00:13:27.692Z,14.32
2023-02-11T00:14:30.821Z,14.10
2023-02-11T00:15:33.898Z,15.50
2023-02-11T00:16:37.149Z,13.25
2023-02-11T00:17:40.461Z,14.75
2023-02-11T00:18:44.020Z,13.80
2023-02-11T00:19:51.695Z,13.02
2023-02-11T00:20:55.291Z,13.25
2023-02-11T00:21:58.565Z,14.55
2023-02-11T00:23:01.789Z,12.95
2023-02-11T00:24:05.195Z,14.88
2023-02-11T00:25:08.583Z,14.43
2023-02-11T00:26:21.307Z,14.07
2023-02-11T00:27:24.511Z,14.02
2023-02-11T00:28:28.147Z,13.45
2023-02-11T00:29:31.276Z,16.48
2023-02-11T00:30:34.885Z,14.52
2023-02-11T00:31:38.271Z,14.00
2023-02-11T00:32:42.674Z,12.55
2023-02-11T00:33:46.561Z,12.43
2023-02-11T00:34:55.248Z,13.50
2023-02-11T00:35:58.546Z,15.15
2023-02-11T00:37:01.925Z,14.20
2023-02-11T00:38:04.983Z,14.10
2023-02-11T00:39:09.030Z,14.45
2023-02-11T00:40:12.696Z,13.43
2023-02-11T00:41:17.024Z,12.57
2023-02-11T00:42:20.132Z,13.52
2023-02-11T00:43:23.316Z,14.13
2023-02-11T00:44:27.190Z,11.20
2023-02-11T00:45:30.791Z,12.18
2023-02-11T00:46:33.957Z,13.75
2023-02-11T00:47:38.178Z,12.52
2023-02-11T00:48:42.346Z,12.02
2023-02-11T00:49:45.557Z,11.75
2023-02-11T00:50:48.727Z,11.57
2023-02-11T00:51:51.784Z,12.25
2023-02-11T00:52:56.593Z,12.38
2023-02-11T00:53:59.663Z,12.50
2023-02-11T00:55:02.970Z,13.00
2023-02-11T00:56:06.844Z,11.73
2023-02-11T00:57:09.856Z,11.25
2023-02-11T00:58:13.051Z,12.40
2023-02-11T00:59:16.318Z,11.95
2023-02-11T01:00:20.568Z,12.05
2023-02-11T01:01:24.107Z,10.15
2023-02-11T01:02:27.534Z,11.10
2023-02-11T01:03:30.927Z,11.35
2023-02-11T01:04:34.060Z,11.70
2023-02-11T01:05:37.232Z,10.93
2023-02-11T01:06:40.394Z,12.00
2023-02-11T01:07:43.671Z,11.05
2023-02-11T01:08:46.898Z,9.98
2023-02-11T01:09:49.937Z,11.02
2023-02-11T01:11:07.578Z,9.40
2023-02-11T01:12:10.705Z,11.25
2023-02-11T01:13:15.680Z,9.90
2023-02-11T01:14:18.838Z,11.77
2023-02-11T01:15:24.440Z,11.05
2023-02-11T01:16:27.656Z,11.35
2023-02-11T01:17:30.777Z,10.82
2023-02-11T01:18:34.218Z,10.57
2023-02-11T01:19:38.392Z,10.15
2023-02-11T01:20:43.294Z,10.90
2023-02-11T01:21:46.591Z,9.85
2023-02-11T01:22:49.734Z,9.65
2023-02-11T01:23:53.445Z,11.15
2023-02-11T01:24:56.648Z,11.15
2023-02-11T01:25:59.906Z,9.98
2023-02-11T01:27:05.237Z,11.85
2023-02-11T01:28:24.942Z,11.23
2023-02-11T01:29:28.690Z,10.07
2023-02-11T01:30:31.974Z,12.10
2023-02-11T01:31:35.170Z,11.98
2023-02-11T01:32:39.225Z,12.80
2023-02-11T01:33:42.428Z,14.30
2023-02-11T01:34:45.881Z,11.80
2023-02-11T01:35:50.287Z,12.48
2023-02-11T01:37:00.389Z,11.20
2023-02-11T01:38:06.196Z,11.73
2023-02-11T01:39:09.430Z,11.52
2023-02-11T01:40:17.510Z,10.90
2023-02-11T01:41:21.016Z,12.52
2023-02-11T01:42:24.897Z,11.10
2023-02-11T01:43:35.020Z,12.20
2023-02-11T01:44:40.331Z,9.77
2023-02-11T01:45:49.369Z,11.02
2023-02-11T01:46:52.970Z,11.93
2023-02-11T01:47:56.188Z,12.02
2023-02-11T01:49:11.647Z,11.63
2023-02-11T01:50:14.853Z,11.43
2023-02-11T01:51:28.496Z,11.30
2023-02-11T01:52:37.159Z,10.20
2023-02-11T01:53:59.256Z,11.13
2023-02-11T01:55:29.358Z,11.68
2023-02-11T01:56:53.676Z,11.95
2023-02-11T01:58:02.709Z,10.85
2023-02-11T01:59:18.898Z,11.90
2023-02-11T02:00:40.430Z,11.48
2023-02-11T02:01:52.919Z,12.48
2023-02-11T02:03:04.588Z,11.45
2023-02-11T02:04:09.672Z,10.82
2023-02-11T02:05:41.639Z,11.68
2023-02-11T02:06:59.361Z,11.82
2023-02-11T02:08:45.603Z,10.98
2023-02-11T02:10:09.744Z,11.68
2023-02-11T02:11:13.364Z,13.07
2023-02-11T02:12:16.595Z,11.57
2023-02-11T02:13:19.795Z,11.27
2023-02-11T02:14:23.106Z,12.57
2023-02-11T02:15:36.438Z,11.25
2023-02-11T02:16:39.882Z,11.75
2023-02-11T02:17:57.171Z,12.43
2023-02-11T02:19:34.470Z,10.88
2023-02-11T02:20:45.836Z,11.23
2023-02-11T02:22:14.324Z,12.07
2023-02-11T02:23:32.462Z,11.52
2023-02-11T02:24:45.179Z,11.10
2023-02-11T02:26:09.571Z,10.35
2023-02-11T02:28:07.336Z,10.70
2023-02-11T02:29:38.290Z,11.70
2023-02-11T02:31:47.342Z,11.63
2023-02-11T02:33:23.903Z,9.95
2023-02-11T02:34:50.234Z,11.68
2023-02-11T02:36:22.619Z,10.45
2023-02-11T02:37:42.049Z,10.88
2023-02-11T02:39:14.745Z,9.70
2023-02-11T02:40:34.917Z,9.98
2023-02-11T02:41:39.471Z,10.75
2023-02-11T02:42:44.441Z,10.30
2023-02-11T02:43:51.396Z,12.20
2023-02-11T02:44:56.465Z,11.05
2023-02-11T02:46:33.683Z,10.68
2023-02-11T02:47:36.966Z,9.88
2023-02-11T02:48:40.193Z,11.98
2023-02-11T02:49:43.441Z,10.52
2023-02-11T02:50:47.195Z,11.23
2023-02-11T02:52:17.108Z,12.38
2023-02-11T02:53:45.110Z,10.10
2023-02-11T02:55:15.591Z,10.77
2023-02-11T02:56:49.950Z,10.23
2023-02-11T02:58:19.848Z,10.70
2023-02-11T02:59:55.551Z,9.38
2023-02-11T03:01:35.703Z,10.45
2023-02-11T03:03:44.324Z,10.30
2023-02-11T03:05:08.626Z,10.05
2023-02-11T03:06:55.166Z,10.88
2023-02-11T03:08:14.986Z,9.23
2023-02-11T03:09:39.019Z,9.38
2023-02-11T03:10:50.297Z,8.93
2023-02-11T03:11:54.022Z,9.75
2023-02-11T03:12:58.602Z,10.25
2023-02-11T03:14:04.779Z,11.88
2023-02-11T03:15:09.476Z,10.40
2023-02-11T03:16:25.534Z,10.65
2023-02-11T03:17:30.262Z,9.27
2023-02-11T03:18:36.967Z,10.35
2023-02-11T03:19:46.394Z,9.52
2023-02-11T03:20:53.726Z,10.02
2023-02-11T03:21:57.801Z,9.18
2023-02-11T03:23:37.405Z,10.70
2023-02-11T03:24:41.953Z,9.68
2023-02-11T03:26:18.852Z,9.45
2023-02-11T03:27:33.845Z,9.95
2023-02-11T03:29:09.990Z,9.93
2023-02-11T03:30:29.942Z,10.10
2023-02-11T03:32:18.375Z,10.40
2023-02-11T03:33:34.647Z,9.85
2023-02-11T03:35:15.640Z,9.75
2023-02-11T03:36:30.276Z,10.20
2023-02-11T03:37:43.333Z,9.38
2023-02-11T03:38:52.041Z,10.40
2023-02-11T03:40:05.539Z,10.18
2023-02-11T03:41:10.035Z,10.43
2023-02-11T03:42:15.338Z,9.50
2023-02-11T03:43:23.112Z,10.88
2023-02-11T03:44:33.042Z,10.57
2023-02-11T03:45:38.457Z,11.10
2023-02-11T03:46:48.228Z,11.43
2023-02-11T03:48:09.241Z,9.63
2023-02-11T03:49:16.387Z,10.70
2023-02-11T03:50:21.938Z,10.05
2023-02-11T03:51:27.827Z,11.32
2023-02-11T03:52:31.875Z,9.50
2023-02-11T03:53:36.488Z,14.00
2023-02-11T03:54:43.749Z,11.43
2023-02-11T03:55:50.883Z,10.77
2023-02-11T03:56:59.565Z,12.27
2023-02-11T03:58:02.925Z,11.35
2023-02-11T03:59:06.150Z,11.85
2023-02-11T04:00:11.159Z,11.43
2023-02-11T04:01:17.320Z,12.25
2023-02-11T04:02:23.730Z,11.48
2023-02-11T04:03:26.966Z,12.23
2023-02-11T04:04:30.154Z,12.13
2023-02-11T04:05:33.811Z,12.13
2023-02-11T04:06:36.984Z,12.05
2023-02-11T04:07:39.985Z,12.23
2023-02-11T04:08:43.126Z,11.98
2023-02-11T04:09:46.273Z,12.88
2023-02-11T04:10:49.345Z,12.82
2023-02-11T04:11:52.654Z,13.63
2023-02-11T04:12:55.900Z,13.95
2023-02-11T04:13:59.380Z,12.75
2023-02-11T04:15:03.397Z,13.05
2023-02-11T04:16:06.811Z,12.63
2023-02-11T04:17:10.431Z,13.40
2023-02-11T04:18:13.582Z,13.15
2023-02-11T04:19:16.760Z,12.27
2023-02-11T04:20:19.922Z,12.55
2023-02-11T04:21:23.161Z,14.50
2023-02-11T04:22:26.401Z,14.07
2023-02-11T04:23:29.586Z,14.02
2023-02-11T04:24:32.831Z,14.25
2023-02-11T04:25:36.424Z,13.73
2023-02-11T04:26:39.636Z,12.80
2023-02-11T04:27:42.880Z,15.68
2023-02-11T04:28:46.031Z,14.00
2023-02-11T04:29:49.169Z,13.85
2023-02-11T04:30:52.318Z,13.18
2023-02-11T04:31:55.906Z,12.93
2023-02-11T04:32:59.392Z,14.02
2023-02-11T04:34:02.576Z,14.63
2023-02-11T04:35:06.739Z,15.05
2023-02-11T04:36:09.855Z,14.32
2023-02-11T04:37:12.927Z,13.70
2023-02-11T04:38:16.422Z,15.10
2023-02-11T04:39:19.567Z,13.93
2023-02-11T04:40:22.597Z,13.90
2023-02-11T04:41:25.730Z,14.32
2023-02-11T04:42:28.806Z,14.20
2023-02-11T04:43:32.016Z,15.25
2023-02-11T04:44:35.247Z,15.38
2023-02-11T04:45:38.280Z,14.23
2023-02-11T04:46:41.486Z,15.13
2023-02-11T04:47:44.762Z,15.88
2023-02-11T04:48:47.839Z,13.85
2023-02-11T04:49:51.001Z,16.02
2023-02-11T04:50:54.185Z,15.35
2023-02-11T04:51:57.396Z,15.27
2023-02-11T04:53:00.493Z,17.15
2023-02-11T04:54:03.659Z,16.05
2023-02-11T04:55:07.241Z,15.63
2023-02-11T04:56:10.339Z,14.52
2023-02-11T04:57:13.387Z,16.02
2023-02-11T04:58:17.961Z,16.23
2023-02-11T04:59:21.103Z,16.10
2023-02-11T05:00:24.152Z,15.65
2023-02-11T05:01:27.417Z,15.25
2023-02-11T05:02:30.606Z,16.08
2023-02-11T05:03:33.684Z,15.95
2023-02-11T05:04:36.844Z,15.20
2023-02-11T05:05:41.766Z,16.90
2023-02-11T05:06:44.960Z,16.67
2023-02-11T05:07:48.562Z,15.43
2023-02-11T05:08:51.878Z,15.57
2023-02-11T05:09:54.927Z,15.93
2023-02-11T05:10:58.670Z,16.50
2023-02-11T05:12:01.776Z,16.55
2023-02-11T05:13:05.333Z,16.58
2023-02-11T05:14:08.548Z,16.05
2023-02-11T05:15:11.715Z,16.20
2023-02-11T05:16:16.572Z,17.17
2023-02-11T05:17:19.672Z,15.52
2023-02-11T05:18:23.063Z,16.10
2023-02-11T05:19:26.195Z,16.17
2023-02-11T05:20:29.352Z,15.88
2023-02-11T05:21:32.649Z,16.33
2023-02-11T05:22:35.948Z,14.15
2023-02-11T05:23:40.183Z,16.73
2023-02-11T05:24:43.366Z,14.65
2023-02-11T05:25:46.497Z,15.65
2023-02-11T05:26:49.794Z,14.82
2023-02-11T05:27:52.908Z,15.35
2023-02-11T05:28:56.713Z,15.70
2023-02-11T05:29:59.926Z,17.20
2023-02-11T05:31:03.600Z,15.73
2023-02-11T05:32:08.954Z,15.95
2023-02-11T05:33:12.056Z,15.57
2023-02-11T05:34:15.322Z,15.68
2023-02-11T05:35:18.611Z,15.40
2023-02-11T05:36:21.684Z,16.42
2023-02-11T05:37:24.804Z,15.48
2023-02-11T05:38:28.564Z,16.50
2023-02-11T05:39:31.709Z,16.63
2023-02-11T05:40:34.804Z,15.98
2023-02-11T05:41:38.320Z,17.25
2023-02-11T05:42:41.676Z,17.33
2023-02-11T05:43:44.765Z,16.75
2023-02-11T05:44:50.482Z,16.27
2023-02-11T05:45:54.201Z,15.43
2023-02-11T05:46:57.534Z,17.90
2023-02-11T05:48:00.893Z,16.60
2023-02-11T05:49:04.573Z,18.55
2023-02-11T05:50:08.260Z,16.40
2023-02-11T05:51:11.576Z,16.02
2023-02-11T05:52:14.740Z,17.33
2023-02-11T05:53:17.917Z,17.45
2023-02-11T05:54:21.285Z,15.02
2023-02-11T05:55:24.563Z,16.52
2023-02-11T05:56:27.729Z,16.08
2023-02-11T05:57:30.890Z,16.83
2023-02-11T05:58:34.127Z,16.10
2023-02-11T05:59:37.460Z,16.67
2023-02-11T06:00:40.864Z,17.48
2023-02-11T06:01:44.368Z,16.73
2023-02-11T06:02:47.645Z,16.90
2023-02-11T06:03:51.537Z,16.15
2023-02-11T06:04:54.632Z,16.90
2023-02-11T06:05:57.796Z,16.17
2023-02-11T06:07:01.123Z,16.80
2023-02-11T06:08:04.498Z,17.25
2023-02-11T06:09:07.597Z,17.23
2023-02-11T06:10:11.013Z,16.65
2023-02-11T06:11:18.106Z,16.65
2023-02-11T06:12:21.369Z,16.42
2023-02-11T06:13:24.539Z,18.35
2023-02-11T06:14:27.687Z,16.42
2023-02-11T06:15:30.993Z,17.38
2023-02-11T06:16:34.185Z,17.42
2023-02-11T06:17:37.486Z,17.10
2023-02-11T06:18:40.739Z,16.70
2023-02-11T06:19:44.075Z,18.52
2023-02-11T06:20:47.146Z,17.63
2023-02-11T06:21:50.378Z,18.05
2023-02-11T06:22:53.451Z,17.85
2023-02-11T06:23:57.936Z,17.00
2023-02-11T06:25:02.298Z,19.15
2023-02-11T06:26:08.975Z,19.00
2023-02-11T06:27:12.335Z,18.73
2023-02-11T06:28:15.582Z,16.83
2023-02-11T06:29:18.986Z,19.13
2023-02-11T06:30:22.260Z,17.75
2023-02-11T06:31:25.397Z,18.90
2023-02-11T06:32:43.305Z,19.40
2023-02-11T06:33:47.375Z,20.15
2023-02-11T06:34:50.535Z,18.27
2023-02-11T06:35:53.702Z,19.95
2023-02-11T06:36:56.808Z,20.58
2023-02-11T06:38:00.259Z,18.70
2023-02-11T06:39:04.110Z,17.33
2023-02-11T06:40:08.029Z,19.08
2023-02-11T06:41:13.821Z,18.08
2023-02-11T06:42:17.113Z,19.13
2023-02-11T06:43:20.210Z,18.60
2023-02-11T06:44:23.530Z,17.67
2023-02-11T06:45:26.610Z,19.33
2023-02-11T06:46:29.794Z,18.50
2023-02-11T06:47:32.925Z,18.33
2023-02-11T06:48:36.512Z,16.98
2023-02-11T06:49:39.660Z,18.98
2023-02-11T06:50:43.221Z,18.27
2023-02-11T06:51:46.310Z,18.60
2023-02-11T06:52:49.403Z,17.58
2023-02-11T06:53:52.623Z,18.65
2023-02-11T06:54:55.736Z,18.63
2023-02-11T06:56:08.389Z,19.85
2023-02-11T06:57:11.582Z,16.63
2023-02-11T06:58:15.105Z,18.10
2023-02-11T06:59:22.940Z,19.67
2023-02-11T07:00:26.616Z,17.80
2023-02-11T07:01:29.907Z,18.15
2023-02-11T07:02:33.411Z,20.05
2023-02-11T07:03:39.064Z,19.85
2023-02-11T07:04:42.238Z,17.75
2023-02-11T07:05:45.441Z,18.73
2023-02-11T07:06:48.605Z,19.35
2023-02-11T07:07:51.777Z,19.38
2023-02-11T07:08:56.574Z,18.63
2023-02-11T07:09:59.920Z,17.98
2023-02-11T07:11:13.927Z,17.58
2023-02-11T07:12:17.002Z,17.10
2023-02-11T07:13:20.122Z,19.88
2023-02-11T07:14:23.450Z,20.05
2023-02-11T07:15:26.729Z,18.80
2023-02-11T07:16:30.447Z,20.35
2023-02-11T07:17:35.786Z,17.92
2023-02-11T07:18:39.325Z,19.35
2023-02-11T07:19:42.900Z,18.95
2023-02-11T07:20:46.324Z,20.73
2023-02-11T07:21:49.451Z,18.95
2023-02-11T07:22:52.633Z,20.10
2023-02-11T07:23:55.843Z,19.45
2023-02-11T07:24:58.983Z,20.08
2023-02-11T07:26:10.031Z,18.67
2023-02-11T07:27:13.236Z,20.17
2023-02-11T07:28:16.435Z,19.20
2023-02-11T07:29:19.501Z,19.02
2023-02-11T07:30:22.609Z,16.70
2023-02-11T07:31:29.441Z,20.05
2023-02-11T07:32:32.655Z,18.85
2023-02-11T07:33:37.323Z,18.60
2023-02-11T07:34:40.485Z,17.05
2023-02-11T07:35:44.333Z,20.95
2023-02-11T07:36:48.941Z,20.15
2023-02-11T07:37:52.391Z,19.85
2023-02-11T07:38:55.735Z,20.63
2023-02-11T07:39:58.893Z,19.38
2023-02-11T07:41:08.510Z,20.23
2023-02-11T07:42:11.776Z,19.27
2023-02-11T07:43:14.914Z,19.20
2023-02-11T07:44:18.700Z,20.73
2023-02-11T07:45:21.753Z,19.20
2023-02-11T07:46:27.668Z,21.98
2023-02-11T07:47:31.021Z,19.45
2023-02-11T07:48:34.512Z,20.23
2023-02-11T07:49:37.751Z,19.48
2023-02-11T07:50:40.876Z,21.55
2023-02-11T07:51:44.410Z,20.30
2023-02-11T07:52:47.676Z,19.08
2023-02-11T07:53:51.973Z,19.55
2023-02-11T07:54:55.137Z,20.52
2023-02-11T07:55:58.231Z,20.48
2023-02-11T07:57:01.312Z,21.52
2023-02-11T07:58:04.656Z,20.75
2023-02-11T07:59:07.861Z,19.38
2023-02-11T08:00:12.000Z,20.20
2023-02-11T08:01:24.957Z,19.85
2023-02-11T08:02:28.329Z,18.60
2023-02-11T08:03:33.271Z,22.40
2023-02-11T08:04:36.412Z,19.88
2023-02-11T08:05:39.635Z,20.00
2023-02-11T08:06:43.838Z,20.20
2023-02-11T08:07:46.923Z,20.70
2023-02-11T08:08:52.545Z,21.15
2023-02-11T08:09:55.849Z,21.75
2023-02-11T08:10:59.002Z,19.33
2023-02-11T08:12:02.642Z,20.63
2023-02-11T08:13:05.818Z,20.88
2023-02-11T08:14:11.258Z,20.20
2023-02-11T08:15:14.698Z,19.88
2023-02-11T08:16:34.182Z,21.75
2023-02-11T08:17:37.986Z,20.17
2023-02-11T08:18:41.145Z,20.38
2023-02-11T08:19:44.478Z,19.63
2023-02-11T08:20:47.684Z,21.67
2023-02-11T08:21:51.037Z,21.00
2023-02-11T08:22:54.266Z,20.77
2023-02-11T08:23:57.523Z,19.27
2023-02-11T08:25:01.070Z,22.17
2023-02-11T08:26:06.697Z,22.10
2023-02-11T08:27:09.879Z,20.02
2023-02-11T08:28:13.097Z,20.92
2023-02-11T08:29:17.352Z,20.63
2023-02-11T08:30:20.659Z,20.88
2023-02-11T08:31:27.871Z,21.40
2023-02-11T08:32:31.125Z,21.92
2023-02-11T08:33:34.907Z,21.77
2023-02-11T08:34:38.094Z,19.13
2023-02-11T08:35:41.451Z,19.55
2023-02-11T08:36:44.955Z,21.60
2023-02-11T08:37:48.067Z,18.45
2023-02-11T08:38:51.398Z,19.92
2023-02-11T08:39:54.567Z,21.85
2023-02-11T08:41:01.070Z,20.98
2023-02-11T08:42:04.484Z,20.58
2023-02-11T08:43:08.238Z,18.73
2023-02-11T08:44:11.768Z,19.75
2023-02-11T08:45:14.863Z,20.33
2023-02-11T08:46:20.127Z,19.35
2023-02-11T08:47:23.352Z,19.55
2023-02-11T08:48:28.699Z,18.88
2023-02-11T08:49:33.994Z,19.13
2023-02-11T08:50:40.061Z,18.55
2023-02-11T08:51:43.724Z,20.00
2023-02-11T08:52:46.844Z,17.63
2023-02-11T08:53:50.560Z,20.23
2023-02-11T08:54:53.781Z,20.98
2023-02-11T08:55:57.068Z,22.10
2023-02-11T08:57:01.954Z,19.45
2023-02-11T08:58:05.366Z,19.10
2023-02-11T08:59:12.406Z,20.70
2023-02-11T09:00:17.225Z,19.23
2023-02-11T09:01:27.310Z,19.77
2023-02-11T09:02:30.727Z,18.20
2023-02-11T09:03:33.945Z,19.05
2023-02-11T09:04:37.073Z,18.40
2023-02-11T09:05:49.970Z,19.65
2023-02-11T09:06:53.298Z,20.88
2023-02-11T09:07:56.392Z,21.40
2023-02-11T09:08:59.780Z,20.80
2023-02-11T09:10:03.100Z,17.90
2023-02-11T09:11:06.509Z,18.85
2023-02-11T09:12:09.692Z,19.73
2023-02-11T09:13:13.101Z,19.45
2023-02-11T09:14:22.404Z,18.88
2023-02-11T09:15:25.509Z,19.90
2023-02-11T09:16:32.946Z,19.52
2023-02-11T09:17:36.127Z,19.55
2023-02-11T09:18:39.268Z,18.17
2023-02-11T09:19:42.338Z,20.98
2023-02-11T09:20:45.613Z,22.90
2023-02-11T09:21:48.762Z,21.52
2023-02-11T09:22:52.301Z,21.67
2023-02-11T09:23:55.750Z,21.67
2023-02-11T09:24:58.924Z,20.90
2023-02-11T09:26:18.468Z,21.42
2023-02-11T09:27:21.855Z,21.17
2023-02-11T09:28:24.924Z,20.23
2023-02-11T09:29:28.084Z,19.95
2023-02-11T09:30:31.268Z,21.83
2023-02-11T09:31:35.172Z,21.95
2023-02-11T09:32:38.670Z,21.08
2023-02-11T09:33:49.621Z,20.30
2023-02-11T09:34:52.931Z,19.80
2023-02-11T09:35:56.153Z,20.20
2023-02-11T09:36:59.225Z,20.23
2023-02-11T09:38:02.391Z,20.92
2023-02-11T09:39:17.176Z,23.58
2023-02-11T09:40:20.509Z,26.00
2023-02-11T09:41:23.595Z,21.88
2023-02-11T09:42:47.248Z,20.63
2023-02-11T09:44:04.882Z,21.98
2023-02-11T09:45:25.915Z,21.52
2023-02-11T09:47:52.027Z,19.27
2023-02-11T09:48:56.876Z,19.65
2023-02-11T09:50:12.649Z,22.83
2023-02-11T09:51:49.732Z,21.63
2023-02-11T09:53:44.462Z,22.92
2023-02-11T09:55:00.452Z,21.95
2023-02-11T09:56:15.389Z,22.67
2023-02-11T09:57:28.349Z,21.33
2023-02-11T09:58:40.055Z,21.40
2023-02-11T09:59:43.461Z,23.25
2023-02-11T10:01:01.523Z,22.15
2023-02-11T10:03:07.785Z,23.55
2023-02-11T10:04:31.547Z,21.40
2023-02-11T10:05:51.166Z,21.67
2023-02-11T10:07:37.114Z,22.70
2023-02-11T10:09:17.513Z,21.08
2023-02-11T10:10:45.725Z,17.77
2023-02-11T10:12:22.379Z,21.60
2023-02-11T10:13:48.616Z,20.92
2023-02-11T10:15:49.715Z,21.20
2023-02-11T10:17:17.100Z,20.60
2023-02-11T10:18:38.747Z,21.83
2023-02-11T10:20:06.321Z,22.13
2023-02-11T10:21:41.678Z,22.27
2023-02-11T10:23:08.542Z,21.75
2023-02-11T10:24:14.589Z,22.13
2023-02-11T10:25:40.490Z,25.95
2023-02-11T10:26:44.728Z,21.55
2023-02-11T10:27:49.680Z,22.02
2023-02-11T10:28:56.070Z,24.27
2023-02-11T10:30:33.668Z,24.60
2023-02-11T10:31:44.153Z,23.60
2023-02-11T10:32:55.288Z,23.45
2023-02-11T10:34:05.253Z,21.63
2023-02-11T10:35:21.201Z,24.13
2023-02-11T10:36:30.528Z,22.65
2023-02-11T10:37:33.678Z,24.73
2023-02-11T10:38:37.423Z,21.30
2023-02-11T10:39:41.749Z,22.48
2023-02-11T10:40:45.899Z,22.80
2023-02-11T10:41:52.292Z,22.75
2023-02-11T10:43:07.532Z,24.23
2023-02-11T10:44:37.568Z,23.13
2023-02-11T10:45:51.994Z,21.58
2023-02-11T10:46:57.172Z,21.00
2023-02-11T10:48:03.891Z,24.23
2023-02-11T10:49:07.065Z,22.73
2023-02-11T10:50:25.608Z,21.92
2023-02-11T10:51:34.174Z,23.75
2023-02-11T10:52:37.342Z,21.98
2023-02-11T10:53:40.591Z,22.48
2023-02-11T10:54:56.493Z,23.75
2023-02-11T10:55:59.589Z,22.95
2023-02-11T10:57:02.735Z,24.50
2023-02-11T10:58:06.361Z,24.17
2023-02-11T10:59:31.473Z,25.58
2023-02-11T11:00:40.827Z,22.77
2023-02-11T11:01:56.072Z,23.42
2023-02-11T11:03:01.369Z,23.63
2023-02-11T11:04:04.570Z,24.42
2023-02-11T11:05:20.010Z,22.70
2023-02-11T11:06:33.592Z,24.80
2023-02-11T11:07:37.186Z,23.70
2023-02-11T11:08:51.908Z,23.05
2023-02-11T11:10:08.529Z,24.33
2023-02-11T11:11:21.497Z,23.80
2023-02-11T11:12:36.497Z,23.75
2023-02-11T11:13:54.232Z,23.65
2023-02-11T11:15:28.580Z,24.17
2023-02-11T11:16:36.738Z,25.38
2023-02-11T11:17:40.265Z,25.58
2023-02-11T11:18:53.626Z,25.05
2023-02-11T11:20:20.849Z,26.35
2023-02-11T11:21:30.403Z,23.75
2023-02-11T11:22:33.628Z,23.95
2023-02-11T11:23:38.640Z,25.13
2023-02-11T11:24:46.797Z,24.52
2023-02-11T11:26:12.967Z,25.33
2023-02-11T11:27:25.937Z,22.15
2023-02-11T11:28:32.870Z,24.63
2023-02-11T11:29:55.174Z,25.30
2023-02-11T11:31:00.653Z,23.67
2023-02-11T11:32:20.890Z,26.15
2023-02-11T11:33:33.503Z,24.60
2023-02-11T11:34:48.648Z,24.70
2023-02-11T11:36:15.765Z,24.75
2023-02-11T11:37:29.876Z,24.50
2023-02-11T11:38:35.230Z,22.02
2023-02-11T11:39:39.732Z,24.33
2023-02-11T11:40:42.887Z,26.30
2023-02-11T11:42:24.409Z,25.05
2023-02-11T11:43:27.628Z,25.58
2023-02-11T11:44:35.750Z,23.58
2023-02-11T11:45:39.258Z,24.38
2023-02-11T11:46:45.701Z,25.55
2023-02-11T11:48:14.528Z,25.40
2023-02-11T11:49:33.039Z,24.20
2023-02-11T11:50:50.239Z,21.70
2023-02-11T11:52:55.138Z,23.58
2023-02-11T11:54:08.682Z,21.10
2023-02-11T11:55:50.084Z,24.83
2023-02-11T11:57:35.276Z,22.65
2023-02-11T11:58:38.940Z,22.65
2023-02-11T11:59:42.322Z,21.27
2023-02-11T12:01:28.171Z,22.85
2023-02-11T12:03:02.582Z,23.13
2023-02-11T12:04:38.838Z,22.52
2023-02-11T12:06:41.658Z,22.20
2023-02-11T12:08:03.212Z,19.77
2023-02-11T12:09:39.761Z,21.67
2023-02-11T12:11:35.531Z,21.83
2023-02-11T12:12:56.708Z,25.10
2023-02-11T12:14:05.429Z,23.25
2023-02-11T12:15:26.698Z,23.42
2023-02-11T12:16:52.755Z,23.05
2023-02-11T12:18:25.081Z,24.05
2023-02-11T12:20:26.292Z,22.08
2023-02-11T12:21:50.795Z,21.23
2023-02-11T12:23:30.199Z,21.75
2023-02-11T12:25:08.901Z,24.42
2023-02-11T12:26:20.551Z,24.90
2023-02-11T12:27:42.393Z,23.42
2023-02-11T12:29:23.979Z,24.33
2023-02-11T12:30:57.454Z,21.98
2023-02-11T12:32:44.339Z,20.60
2023-02-11T12:34:15.636Z,21.35
2023-02-11T12:35:37.340Z,21.58
2023-02-11T12:37:23.624Z,22.95
2023-02-11T12:39:01.733Z,20.05
2023-02-11T12:40:12.236Z,22.67
2023-02-11T12:41:43.659Z,25.15
2023-02-11T12:43:21.679Z,22.02
2023-02-11T12:44:29.967Z,22.48
2023-02-11T12:46:19.164Z,21.95
2023-02-11T12:48:09.565Z,21.33
2023-02-11T12:49:45.698Z,21.48
2023-02-11T12:51:20.580Z,22.08
2023-02-11T12:52:43.990Z,20.60
2023-02-11T12:54:06.981Z,21.67
2023-02-11T12:55:13.938Z,22.23
2023-02-11T12:56:51.982Z,21.05
2023-02-11T12:57:58.145Z,20.65
2023-02-11T12:59:05.284Z,22.45
2023-02-11T13:00:14.917Z,20.75
2023-02-11T13:01:26.411Z,23.40
2023-02-11T13:03:04.583Z,22.02
2023-02-11T13:04:42.267Z,20.38
2023-02-11T13:06:01.082Z,22.02
2023-02-11T13:07:16.082Z,22.05
2023-02-11T13:09:00.325Z,22.88
2023-02-11T13:10:23.279Z,22.42
2023-02-11T13:11:43.174Z,22.83
2023-02-11T13:13:07.037Z,21.58
2023-02-11T13:14:26.195Z,22.08
2023-02-11T13:15:30.701Z,20.23
2023-02-11T13:16:45.216Z,21.08
2023-02-11T13:18:30.533Z,24.15
2023-02-11T13:19:48.654Z,19.88
2023-02-11T13:21:20.479Z,23.33
2023-02-11T13:22:39.010Z,20.83
2023-02-11T13:24:09.432Z,21.77
2023-02-11T13:25:52.996Z,21.95
2023-02-11T13:27:23.712Z,20.83
2023-02-11T13:28:36.747Z,21.05
2023-02-11T13:29:58.570Z,21.80
2023-02-11T13:31:03.602Z,22.58
2023-02-11T13:32:16.402Z,22.95
2023-02-11T13:33:32.728Z,21.35
2023-02-11T13:34:58.913Z,21.60
2023-02-11T13:36:04.494Z,22.23
2023-02-11T13:37:39.216Z,21.63
2023-02-11T13:38:57.519Z,21.02
2023-02-11T13:40:28.517Z,23.13
2023-02-11T13:41:41.639Z,21.42
2023-02-11T13:42:55.972Z,20.50
2023-02-11T13:44:10.539Z,22.40
2023-02-11T13:45:45.729Z,21.70
2023-02-11T13:46:59.576Z,20.45
2023-02-11T13:48:08.256Z,22.38
2023-02-11T13:49:35.690Z,22.13
2023-02-11T13:50:47.809Z,20.15
2023-02-11T13:51:52.310Z,22.77
2023-02-11T13:53:05.021Z,22.48
2023-02-11T13:54:09.984Z,21.45
2023-02-11T13:55:24.734Z,21.65
2023-02-11T13:56:46.279Z,21.73
2023-02-11T13:58:08.042Z,21.60
2023-02-11T13:59:27.130Z,21.92
2023-02-11T14:00:36.202Z,22.75
2023-02-11T14:02:24.534Z,22.23
2023-02-11T14:03:53.739Z,21.75
2023-02-11T14:05:24.433Z,19.52
2023-02-11T14:07:07.340Z,22.42
2023-02-11T14:08:28.868Z,19.25
2023-02-11T14:09:38.834Z,20.75
2023-02-11T14:10:41.816Z,20.35
2023-02-11T14:11:48.798Z,20.02
2023-02-11T14:13:29.906Z,20.83
2023-02-11T14:14:35.104Z,20.63
2023-02-11T14:15:41.515Z,20.23
2023-02-11T14:17:03.233Z,24.85
2023-02-11T14:18:55.782Z,21.92
2023-02-11T14:20:01.059Z,20.98
2023-02-11T14:21:23.768Z,20.60
2023-02-11T14:22:44.233Z,21.73
2023-02-11T14:23:48.013Z,20.50
2023-02-11T14:24:59.638Z,22.40
2023-02-11T14:26:20.751Z,21.70
2023-02-11T14:27:42.479Z,21.15
2023-02-11T14:29:16.663Z,19.25
2023-02-11T14:31:15.430Z,22.40
2023-02-11T14:32:45.770Z,18.08
2023-02-11T14:34:00.893Z,19.63
2023-02-11T14:35:20.791Z,20.33
2023-02-11T14:36:35.000Z,19.77
2023-02-11T14:38:10.028Z,19.38
2023-02-11T14:39:52.701Z,19.10
2023-02-11T14:41:14.723Z,19.20
2023-02-11T14:42:22.720Z,18.95
2023-02-11T14:43:32.033Z,20.45
2023-02-11T14:44:35.706Z,20.65
2023-02-11T14:45:39.510Z,20.35
2023-02-11T14:46:52.592Z,19.13
2023-02-11T14:48:15.039Z,19.58
2023-02-11T14:49:36.385Z,18.45
2023-02-11T14:50:46.922Z,20.05
2023-02-11T14:52:54.751Z,17.23
2023-02-11T14:54:24.100Z,18.45
2023-02-11T14:55:37.656Z,17.70
2023-02-11T14:56:42.368Z,17.80
2023-02-11T14:57:46.113Z,18.63
2023-02-11T14:58:52.010Z,18.45
2023-02-11T15:00:14.583Z,16.60
2023-02-11T15:01:42.019Z,16.30
2023-02-11T15:02:45.474Z,17.35
2023-02-11T15:03:50.246Z,17.98
2023-02-11T15:04:54.986Z,16.65
2023-02-11T15:06:06.919Z,16.70
2023-02-11T15:07:13.775Z,16.92
2023-02-11T15:08:16.895Z,16.50
2023-02-11T15:09:28.288Z,18.33
2023-02-11T15:10:54.069Z,18.27
2023-02-11T15:11:58.907Z,16.67
2023-02-11T15:13:04.819Z,19.15
2023-02-11T15:14:17.401Z,15.95
2023-02-11T15:15:20.859Z,15.60
2023-02-11T15:16:28.583Z,15.20
2023-02-11T15:17:32.852Z,16.02